sensor_id;sensor_type;location;lat;lon;timestamp;temperature;humidity
11650;DHT22;5881;48.522;7.682;2023-01-16T00:01:12;4.70;99.90
11650;DHT22;5881;48.522;7.682;2023-01-16T00:03:38;4.60;99.90
11650;DHT22;5881;48.522;7.682;2023-01-16T00:06:03;4.60;99.90
11650;DHT22;5881;48.522;7.682;2023-01-16T00:08:30;4.60;99.90
11650;DHT22;5881;48.522;7.682;2023-01-16T00:10:56;4.60;99.90
11650;DHT22;5881;48.522;7.682;2023-01-16T00:13:22;4.60;99.90
11650;DHT22;5881;48.522;7.682;2023-01-16T00:15:49;4.60;99.90
11650;DHT22;5881;48.522;7.682;2023-01-16T00:18:15;4.60;99.90
11650;DHT22;5881;48.522;7.682;2023-01-16T00:20:41;4.70;99.90
11650;DHT22;5881;48.522;7.682;2023-01-16T00:23:07;4.70;99.90
11650;DHT22;5881;48.522;7.682;2023-01-16T00:25:32;4.70;99.90
11650;DHT22;5881;48.522;7.682;2023-01-16T00:27:58;4.70;99.90
11650;DHT22;5881;48.522;7.682;2023-01-16T00:30:24;4.70;99.90
11650;DHT22;5881;48.522;7.682;2023-01-16T00:32:50;4.80;99.90
11650;DHT22;5881;48.522;7.682;2023-01-16T00:35:16;4.80;99.90
11650;DHT22;5881;48.522;7.682;2023-01-16T00:37:41;4.80;99.90
11650;DHT22;5881;48.522;7.682;2023-01-16T00:40:07;4.80;99.90
11650;DHT22;5881;48.522;7.682;2023-01-16T00:42:33;4.90;99.90
11650;DHT22;5881;48.522;7.682;2023-01-16T00:44:59;4.80;99.90
11650;DHT22;5881;48.522;7.682;2023-01-16T00:47:24;4.80;99.90
11650;DHT22;5881;48.522;7.682;2023-01-16T00:49:50;4.70;99.90
11650;DHT22;5881;48.522;7.682;2023-01-16T00:52:16;4.90;99.90
11650;DHT22;5881;48.522;7.682;2023-01-16T00:54:41;4.80;99.90
11650;DHT22;5881;48.522;7.682;2023-01-16T00:57:07;4.80;99.90
11650;DHT22;5881;48.522;7.682;2023-01-16T00:59:33;4.80;99.90
11650;DHT22;5881;48.522;7.682;2023-01-16T01:01:58;4.80;99.90
11650;DHT22;5881;48.522;7.682;2023-01-16T01:04:24;4.80;99.90
11650;DHT22;5881;48.522;7.682;2023-01-16T01:06:49;4.80;99.90
11650;DHT22;5881;48.522;7.682;2023-01-16T01:09:16;4.80;99.90
11650;DHT22;5881;48.522;7.682;2023-01-16T01:11:41;4.80;99.90
11650;DHT22;5881;48.522;7.682;2023-01-16T01:14:07;4.80;99.90
11650;DHT22;5881;48.522;7.682;2023-01-16T01:16:33;4.80;99.90
11650;DHT22;5881;48.522;7.682;2023-01-16T01:18:58;4.90;99.90
11650;DHT22;5881;48.522;7.682;2023-01-16T01:21:24;4.70;99.90
11650;DHT22;5881;48.522;7.682;2023-01-16T01:23:49;4.70;99.90
11650;DHT22;5881;48.522;7.682;2023-01-16T01:26:16;4.60;99.90
11650;DHT22;5881;48.522;7.682;2023-01-16T01:28:42;4.60;99.90
11650;DHT22;5881;48.522;7.682;2023-01-16T01:31:10;4.60;99.90
11650;DHT22;5881;48.522;7.682;2023-01-16T01:33:36;4.60;99.90
11650;DHT22;5881;48.522;7.682;2023-01-16T01:36:03;4.60;99.90
11650;DHT22;5881;48.522;7.682;2023-01-16T01:38:29;4.60;99.90
11650;DHT22;5881;48.522;7.682;2023-01-16T01:40:55;4.60;99.90
11650;DHT22;5881;48.522;7.682;2023-01-16T01:43:21;4.60;99.90
11650;DHT22;5881;48.522;7.682;2023-01-16T01:45:50;4.50;99.90
11650;DHT22;5881;48.522;7.682;2023-01-16T01:48:35;4.40;99.90
11650;DHT22;5881;48.522;7.682;2023-01-16T01:51:20;4.40;99.90
11650;DHT22;5881;48.522;7.682;2023-01-16T01:53:56;4.40;99.90
11650;DHT22;5881;48.522;7.682;2023-01-16T01:58:57;4.40;99.90
11650;DHT22;5881;48.522;7.682;2023-01-16T02:01:24;4.40;99.90
11650;DHT22;5881;48.522;7.682;2023-01-16T02:04:24;4.30;99.90
11650;DHT22;5881;48.522;7.682;2023-01-16T02:06:54;4.20;99.90
11650;DHT22;5881;48.522;7.682;2023-01-16T02:09:21;4.20;99.90
11650;DHT22;5881;48.522;7.682;2023-01-16T02:12:02;4.20;99.90
11650;DHT22;5881;48.522;7.682;2023-01-16T02:14:33;4.10;99.90
11650;DHT22;5881;48.522;7.682;2023-01-16T02:17:13;4.10;99.90
11650;DHT22;5881;48.522;7.682;2023-01-16T02:37:30;4.00;99.90
11650;DHT22;5881;48.522;7.682;2023-01-16T02:42:38;4.10;99.90
11650;DHT22;5881;48.522;7.682;2023-01-16T02:45:17;4.10;99.90
11650;DHT22;5881;48.522;7.682;2023-01-16T02:50:32;4.00;99.90
11650;DHT22;5881;48.522;7.682;2023-01-16T02:55:35;3.90;99.90
11650;DHT22;5881;48.522;7.682;2023-01-16T02:58:05;3.90;99.90
11650;DHT22;5881;48.522;7.682;2023-01-16T03:00:33;3.90;99.90
11650;DHT22;5881;48.522;7.682;2023-01-16T03:02:59;3.80;99.90
11650;DHT22;5881;48.522;7.682;2023-01-16T03:05:26;3.80;99.90
11650;DHT22;5881;48.522;7.682;2023-01-16T03:11:21;3.80;99.90
11650;DHT22;5881;48.522;7.682;2023-01-16T03:16:25;3.80;99.90
11650;DHT22;5881;48.522;7.682;2023-01-16T03:22:16;3.50;99.90
11650;DHT22;5881;48.522;7.682;2023-01-16T03:32:37;3.40;99.90
11650;DHT22;5881;48.522;7.682;2023-01-16T03:35:15;3.40;99.90
11650;DHT22;5881;48.522;7.682;2023-01-16T03:37:57;3.40;99.90
11650;DHT22;5881;48.522;7.682;2023-01-16T03:40:28;3.40;99.90
11650;DHT22;5881;48.522;7.682;2023-01-16T03:43:02;3.50;99.90
11650;DHT22;5881;48.522;7.682;2023-01-16T03:45:40;3.50;99.90
11650;DHT22;5881;48.522;7.682;2023-01-16T03:48:18;3.50;99.90
11650;DHT22;5881;48.522;7.682;2023-01-16T03:50:51;3.60;99.90
11650;DHT22;5881;48.522;7.682;2023-01-16T03:53:23;3.60;99.90
11650;DHT22;5881;48.522;7.682;2023-01-16T03:55:53;3.70;99.90
11650;DHT22;5881;48.522;7.682;2023-01-16T03:58:27;3.80;99.90
11650;DHT22;5881;48.522;7.682;2023-01-16T04:03:28;3.70;99.90
11650;DHT22;5881;48.522;7.682;2023-01-16T04:06:05;4.00;99.90
11650;DHT22;5881;48.522;7.682;2023-01-16T04:08:36;3.80;99.90
11650;DHT22;5881;48.522;7.682;2023-01-16T04:11:03;3.70;99.90
11650;DHT22;5881;48.522;7.682;2023-01-16T04:13:37;3.60;99.90
11650;DHT22;5881;48.522;7.682;2023-01-16T04:16:07;3.70;99.90
11650;DHT22;5881;48.522;7.682;2023-01-16T04:18:35;3.90;99.90
11650;DHT22;5881;48.522;7.682;2023-01-16T04:21:04;4.00;99.90
11650;DHT22;5881;48.522;7.682;2023-01-16T04:23:31;4.10;99.90
11650;DHT22;5881;48.522;7.682;2023-01-16T04:25:56;4.20;99.90
11650;DHT22;5881;48.522;7.682;2023-01-16T04:28:22;4.20;99.90
11650;DHT22;5881;48.522;7.682;2023-01-16T04:30:48;4.40;99.90
11650;DHT22;5881;48.522;7.682;2023-01-16T04:33:13;4.50;99.90
11650;DHT22;5881;48.522;7.682;2023-01-16T04:35:39;4.50;99.90
11650;DHT22;5881;48.522;7.682;2023-01-16T04:38:04;4.50;99.90
11650;DHT22;5881;48.522;7.682;2023-01-16T04:40:30;4.60;99.90
11650;DHT22;5881;48.522;7.682;2023-01-16T04:42:55;4.70;99.90
11650;DHT22;5881;48.522;7.682;2023-01-16T04:45:22;4.70;99.90
11650;DHT22;5881;48.522;7.682;2023-01-16T04:47:49;4.70;99.90
11650;DHT22;5881;48.522;7.682;2023-01-16T04:50:15;4.70;99.90
11650;DHT22;5881;48.522;7.682;2023-01-16T04:52:41;4.70;99.90
11650;DHT22;5881;48.522;7.682;2023-01-16T04:55:08;4.80;99.90
11650;DHT22;5881;48.522;7.682;2023-01-16T04:57:34;4.70;99.90
11650;DHT22;5881;48.522;7.682;2023-01-16T05:00:00;4.80;99.90
11650;DHT22;5881;48.522;7.682;2023-01-16T05:02:26;4.70;99.90
11650;DHT22;5881;48.522;7.682;2023-01-16T05:04:51;4.80;99.90
11650;DHT22;5881;48.522;7.682;2023-01-16T05:07:17;4.80;99.90
11650;DHT22;5881;48.522;7.682;2023-01-16T05:09:43;4.80;99.90
11650;DHT22;5881;48.522;7.682;2023-01-16T05:12:08;4.80;99.90
11650;DHT22;5881;48.522;7.682;2023-01-16T05:14:34;4.80;99.90
11650;DHT22;5881;48.522;7.682;2023-01-16T05:17:00;4.90;99.90
11650;DHT22;5881;48.522;7.682;2023-01-16T05:19:25;4.80;99.90
11650;DHT22;5881;48.522;7.682;2023-01-16T05:21:51;4.70;99.90
11650;DHT22;5881;48.522;7.682;2023-01-16T05:24:16;4.70;99.90
11650;DHT22;5881;48.522;7.682;2023-01-16T05:26:42;4.60;99.90
11650;DHT22;5881;48.522;7.682;2023-01-16T05:29:08;4.70;99.90
11650;DHT22;5881;48.522;7.682;2023-01-16T05:31:34;4.70;99.90
11650;DHT22;5881;48.522;7.682;2023-01-16T05:33:59;4.70;99.90
11650;DHT22;5881;48.522;7.682;2023-01-16T05:36:25;4.70;99.90
11650;DHT22;5881;48.522;7.682;2023-01-16T05:38:51;4.70;99.90
11650;DHT22;5881;48.522;7.682;2023-01-16T05:41:17;4.60;99.90
11650;DHT22;5881;48.522;7.682;2023-01-16T05:43:42;4.60;99.90
11650;DHT22;5881;48.522;7.682;2023-01-16T05:46:08;4.60;99.90
11650;DHT22;5881;48.522;7.682;2023-01-16T05:48:34;4.60;99.90
11650;DHT22;5881;48.522;7.682;2023-01-16T05:51:02;4.60;99.90
11650;DHT22;5881;48.522;7.682;2023-01-16T05:53:28;4.70;99.90
11650;DHT22;5881;48.522;7.682;2023-01-16T05:55:55;4.70;99.90
11650;DHT22;5881;48.522;7.682;2023-01-16T05:58:21;4.70;99.90
11650;DHT22;5881;48.522;7.682;2023-01-16T06:00:46;4.70;99.90
11650;DHT22;5881;48.522;7.682;2023-01-16T06:03:12;4.80;99.90
11650;DHT22;5881;48.522;7.682;2023-01-16T06:05:37;4.90;99.90
11650;DHT22;5881;48.522;7.682;2023-01-16T06:08:03;4.80;99.90
11650;DHT22;5881;48.522;7.682;2023-01-16T06:10:30;4.80;99.90
11650;DHT22;5881;48.522;7.682;2023-01-16T06:12:55;4.70;99.90
11650;DHT22;5881;48.522;7.682;2023-01-16T06:15:21;5.00;99.90
11650;DHT22;5881;48.522;7.682;2023-01-16T06:17:47;4.90;99.90
11650;DHT22;5881;48.522;7.682;2023-01-16T06:20:13;5.20;99.90
11650;DHT22;5881;48.522;7.682;2023-01-16T06:22:39;5.20;99.90
11650;DHT22;5881;48.522;7.682;2023-01-16T06:25:05;5.20;99.90
11650;DHT22;5881;48.522;7.682;2023-01-16T06:27:31;5.40;99.90
11650;DHT22;5881;48.522;7.682;2023-01-16T06:29:57;5.50;99.90
11650;DHT22;5881;48.522;7.682;2023-01-16T06:32:23;5.50;99.90
11650;DHT22;5881;48.522;7.682;2023-01-16T06:34:49;5.60;99.90
11650;DHT22;5881;48.522;7.682;2023-01-16T06:37:14;5.60;99.90
11650;DHT22;5881;48.522;7.682;2023-01-16T06:39:40;5.60;99.90
11650;DHT22;5881;48.522;7.682;2023-01-16T06:42:05;5.50;99.90
11650;DHT22;5881;48.522;7.682;2023-01-16T06:44:32;5.60;99.90
11650;DHT22;5881;48.522;7.682;2023-01-16T06:46:59;5.70;99.90
11650;DHT22;5881;48.522;7.682;2023-01-16T06:49:25;5.50;99.90
11650;DHT22;5881;48.522;7.682;2023-01-16T06:51:50;5.50;99.90
11650;DHT22;5881;48.522;7.682;2023-01-16T06:54:16;5.60;99.90
11650;DHT22;5881;48.522;7.682;2023-01-16T06:56:42;5.50;99.90
11650;DHT22;5881;48.522;7.682;2023-01-16T06:59:08;5.50;99.90
11650;DHT22;5881;48.522;7.682;2023-01-16T07:01:33;5.50;99.90
11650;DHT22;5881;48.522;7.682;2023-01-16T07:03:59;5.50;99.90
11650;DHT22;5881;48.522;7.682;2023-01-16T07:06:25;5.50;99.90
11650;DHT22;5881;48.522;7.682;2023-01-16T07:08:50;5.60;99.90
11650;DHT22;5881;48.522;7.682;2023-01-16T07:11:17;5.60;99.90
11650;DHT22;5881;48.522;7.682;2023-01-16T07:13:43;5.60;99.90
11650;DHT22;5881;48.522;7.682;2023-01-16T07:16:13;5.60;99.90
11650;DHT22;5881;48.522;7.682;2023-01-16T07:18:58;5.50;99.90
11650;DHT22;5881;48.522;7.682;2023-01-16T07:21:43;5.50;99.90
11650;DHT22;5881;48.522;7.682;2023-01-16T07:24:30;5.60;99.90
11650;DHT22;5881;48.522;7.682;2023-01-16T07:27:00;5.50;99.90
11650;DHT22;5881;48.522;7.682;2023-01-16T07:29:29;5.50;99.90
11650;DHT22;5881;48.522;7.682;2023-01-16T07:31:55;5.50;99.90
11650;DHT22;5881;48.522;7.682;2023-01-16T07:34:21;5.50;99.90
11650;DHT22;5881;48.522;7.682;2023-01-16T07:36:48;5.50;99.90
11650;DHT22;5881;48.522;7.682;2023-01-16T07:39:13;5.50;99.90
11650;DHT22;5881;48.522;7.682;2023-01-16T07:41:39;5.40;99.90
11650;DHT22;5881;48.522;7.682;2023-01-16T07:44:04;5.40;99.90
11650;DHT22;5881;48.522;7.682;2023-01-16T07:46:31;5.40;99.90
11650;DHT22;5881;48.522;7.682;2023-01-16T07:48:57;5.30;99.90
11650;DHT22;5881;48.522;7.682;2023-01-16T07:51:23;5.40;99.90
11650;DHT22;5881;48.522;7.682;2023-01-16T07:53:49;5.40;99.90
11650;DHT22;5881;48.522;7.682;2023-01-16T07:56:15;5.40;99.90
11650;DHT22;5881;48.522;7.682;2023-01-16T07:58:41;5.30;99.90
11650;DHT22;5881;48.522;7.682;2023-01-16T08:01:09;5.30;99.90
11650;DHT22;5881;48.522;7.682;2023-01-16T08:03:35;5.30;99.90
11650;DHT22;5881;48.522;7.682;2023-01-16T08:06:01;5.20;99.90
11650;DHT22;5881;48.522;7.682;2023-01-16T08:08:28;5.10;99.90
11650;DHT22;5881;48.522;7.682;2023-01-16T08:10:58;5.00;99.90
11650;DHT22;5881;48.522;7.682;2023-01-16T08:13:25;5.20;99.90
11650;DHT22;5881;48.522;7.682;2023-01-16T08:15:51;5.20;99.90
11650;DHT22;5881;48.522;7.682;2023-01-16T08:18:18;5.20;99.90
11650;DHT22;5881;48.522;7.682;2023-01-16T08:20:44;5.30;99.90
11650;DHT22;5881;48.522;7.682;2023-01-16T08:23:11;5.40;99.90
11650;DHT22;5881;48.522;7.682;2023-01-16T08:25:37;5.50;99.90
11650;DHT22;5881;48.522;7.682;2023-01-16T08:28:03;5.50;99.90
11650;DHT22;5881;48.522;7.682;2023-01-16T08:30:29;5.60;99.90
11650;DHT22;5881;48.522;7.682;2023-01-16T08:32:59;5.80;99.90
11650;DHT22;5881;48.522;7.682;2023-01-16T08:35:25;5.80;99.90
11650;DHT22;5881;48.522;7.682;2023-01-16T08:37:50;5.80;99.90
11650;DHT22;5881;48.522;7.682;2023-01-16T08:40:17;5.80;99.90
11650;DHT22;5881;48.522;7.682;2023-01-16T08:42:43;5.80;99.90
11650;DHT22;5881;48.522;7.682;2023-01-16T08:45:27;5.80;99.90
11650;DHT22;5881;48.522;7.682;2023-01-16T08:48:11;6.00;99.90
11650;DHT22;5881;48.522;7.682;2023-01-16T08:50:58;5.90;99.90
11650;DHT22;5881;48.522;7.682;2023-01-16T08:53:43;6.00;99.90
11650;DHT22;5881;48.522;7.682;2023-01-16T08:56:08;6.00;99.90
11650;DHT22;5881;48.522;7.682;2023-01-16T08:58:34;6.20;99.90
11650;DHT22;5881;48.522;7.682;2023-01-16T09:00:59;6.10;99.90
11650;DHT22;5881;48.522;7.682;2023-01-16T09:03:25;6.10;99.90
11650;DHT22;5881;48.522;7.682;2023-01-16T09:05:51;6.10;99.90
11650;DHT22;5881;48.522;7.682;2023-01-16T09:08:16;6.00;99.90
11650;DHT22;5881;48.522;7.682;2023-01-16T09:10:42;6.10;99.90
11650;DHT22;5881;48.522;7.682;2023-01-16T09:13:28;6.10;99.90
11650;DHT22;5881;48.522;7.682;2023-01-16T09:16:12;6.10;99.90
11650;DHT22;5881;48.522;7.682;2023-01-16T09:18:37;6.10;99.90
11650;DHT22;5881;48.522;7.682;2023-01-16T09:21:03;6.20;99.90
11650;DHT22;5881;48.522;7.682;2023-01-16T09:23:29;6.20;99.90
11650;DHT22;5881;48.522;7.682;2023-01-16T09:25:54;6.30;99.90
11650;DHT22;5881;48.522;7.682;2023-01-16T09:28:20;6.30;99.90
11650;DHT22;5881;48.522;7.682;2023-01-16T09:30:45;6.30;99.90
11650;DHT22;5881;48.522;7.682;2023-01-16T09:33:11;6.40;99.90
11650;DHT22;5881;48.522;7.682;2023-01-16T09:35:36;6.40;99.90
11650;DHT22;5881;48.522;7.682;2023-01-16T09:38:02;6.40;99.90
11650;DHT22;5881;48.522;7.682;2023-01-16T09:40:28;6.40;99.90
11650;DHT22;5881;48.522;7.682;2023-01-16T09:43:27;6.40;99.90
11650;DHT22;5881;48.522;7.682;2023-01-16T09:51:31;6.40;99.90
11650;DHT22;5881;48.522;7.682;2023-01-16T09:54:20;6.40;99.90
11650;DHT22;5881;48.522;7.682;2023-01-16T09:57:12;6.40;99.90
11650;DHT22;5881;48.522;7.682;2023-01-16T09:59:58;6.50;99.90
11650;DHT22;5881;48.522;7.682;2023-01-16T10:02:32;6.60;99.90
11650;DHT22;5881;48.522;7.682;2023-01-16T10:04:59;6.50;99.90
11650;DHT22;5881;48.522;7.682;2023-01-16T10:18:54;6.60;99.90
11650;DHT22;5881;48.522;7.682;2023-01-16T10:21:48;6.60;99.90
11650;DHT22;5881;48.522;7.682;2023-01-16T10:26:59;6.60;99.90
11650;DHT22;5881;48.522;7.682;2023-01-16T10:29:36;6.60;99.90
11650;DHT22;5881;48.522;7.682;2023-01-16T10:32:06;6.60;99.90
11650;DHT22;5881;48.522;7.682;2023-01-16T10:34:37;6.70;99.90
11650;DHT22;5881;48.522;7.682;2023-01-16T10:37:05;6.80;99.90
11650;DHT22;5881;48.522;7.682;2023-01-16T10:39:33;6.80;99.90
11650;DHT22;5881;48.522;7.682;2023-01-16T10:42:09;6.90;99.90
11650;DHT22;5881;48.522;7.682;2023-01-16T10:45:13;6.90;99.90
11650;DHT22;5881;48.522;7.682;2023-01-16T10:47:58;6.90;99.90
11650;DHT22;5881;48.522;7.682;2023-01-16T10:50:43;6.90;99.90
11650;DHT22;5881;48.522;7.682;2023-01-16T10:53:10;7.00;99.90
11650;DHT22;5881;48.522;7.682;2023-01-16T10:55:39;7.00;99.90
11650;DHT22;5881;48.522;7.682;2023-01-16T11:00:43;7.10;99.90
11650;DHT22;5881;48.522;7.682;2023-01-16T11:05:48;7.10;99.90
11650;DHT22;5881;48.522;7.682;2023-01-16T11:08:16;7.10;99.90
11650;DHT22;5881;48.522;7.682;2023-01-16T11:10:47;7.10;99.90
11650;DHT22;5881;48.522;7.682;2023-01-16T11:16:27;7.20;99.90
11650;DHT22;5881;48.522;7.682;2023-01-16T11:19:23;7.70;99.90
11650;DHT22;5881;48.522;7.682;2023-01-16T11:21:58;8.10;99.90
11650;DHT22;5881;48.522;7.682;2023-01-16T11:24:32;7.80;99.90
11650;DHT22;5881;48.522;7.682;2023-01-16T11:27:05;7.50;99.90
11650;DHT22;5881;48.522;7.682;2023-01-16T11:29:37;7.40;99.90
11650;DHT22;5881;48.522;7.682;2023-01-16T11:32:09;7.40;99.90
11650;DHT22;5881;48.522;7.682;2023-01-16T11:34:44;7.40;99.90
11650;DHT22;5881;48.522;7.682;2023-01-16T11:37:12;7.50;99.90
11650;DHT22;5881;48.522;7.682;2023-01-16T11:39:39;7.50;99.90
11650;DHT22;5881;48.522;7.682;2023-01-16T11:42:11;7.70;99.90
11650;DHT22;5881;48.522;7.682;2023-01-16T11:44:58;8.00;99.90
11650;DHT22;5881;48.522;7.682;2023-01-16T11:47:44;8.50;99.90
11650;DHT22;5881;48.522;7.682;2023-01-16T11:50:32;9.00;99.90
11650;DHT22;5881;48.522;7.682;2023-01-16T11:52:57;9.00;99.90
11650;DHT22;5881;48.522;7.682;2023-01-16T11:55:31;8.70;99.90
11650;DHT22;5881;48.522;7.682;2023-01-16T12:01:11;8.50;99.90
11650;DHT22;5881;48.522;7.682;2023-01-16T12:06:38;8.30;99.90
11650;DHT22;5881;48.522;7.682;2023-01-16T12:15:05;8.50;99.90
11650;DHT22;5881;48.522;7.682;2023-01-16T12:17:42;8.50;99.90
11650;DHT22;5881;48.522;7.682;2023-01-16T12:31:38;8.40;99.90
11650;DHT22;5881;48.522;7.682;2023-01-16T12:34:28;8.40;99.90
11650;DHT22;5881;48.522;7.682;2023-01-16T12:37:19;8.30;99.90
11650;DHT22;5881;48.522;7.682;2023-01-16T12:42:48;8.10;99.90
11650;DHT22;5881;48.522;7.682;2023-01-16T12:53:39;8.20;99.90
11650;DHT22;5881;48.522;7.682;2023-01-16T12:56:14;8.40;99.90
11650;DHT22;5881;48.522;7.682;2023-01-16T12:58:45;8.40;99.90
11650;DHT22;5881;48.522;7.682;2023-01-16T13:01:34;8.60;99.90
11650;DHT22;5881;48.522;7.682;2023-01-16T13:04:24;8.50;99.90
11650;DHT22;5881;48.522;7.682;2023-01-16T13:06:55;8.30;99.90
11650;DHT22;5881;48.522;7.682;2023-01-16T13:12:38;8.10;99.90
11650;DHT22;5881;48.522;7.682;2023-01-16T13:15:28;8.10;99.90
11650;DHT22;5881;48.522;7.682;2023-01-16T13:18:01;8.10;99.90
11650;DHT22;5881;48.522;7.682;2023-01-16T13:20:29;8.10;99.90
11650;DHT22;5881;48.522;7.682;2023-01-16T13:23:08;8.20;99.90
11650;DHT22;5881;48.522;7.682;2023-01-16T13:25:40;8.20;99.90
11650;DHT22;5881;48.522;7.682;2023-01-16T13:28:14;8.00;99.90
11650;DHT22;5881;48.522;7.682;2023-01-16T13:30:43;8.00;99.90
11650;DHT22;5881;48.522;7.682;2023-01-16T13:33:15;7.90;99.90
11650;DHT22;5881;48.522;7.682;2023-01-16T13:38:59;7.80;99.90
11650;DHT22;5881;48.522;7.682;2023-01-16T13:41:33;7.70;99.90
11650;DHT22;5881;48.522;7.682;2023-01-16T13:44:25;7.70;99.90
11650;DHT22;5881;48.522;7.682;2023-01-16T13:47:18;7.70;99.90
11650;DHT22;5881;48.522;7.682;2023-01-16T13:50:01;7.70;99.90
11650;DHT22;5881;48.522;7.682;2023-01-16T13:52:28;7.70;99.90
11650;DHT22;5881;48.522;7.682;2023-01-16T13:55:00;7.60;99.90
11650;DHT22;5881;48.522;7.682;2023-01-16T13:57:27;7.60;99.90
11650;DHT22;5881;48.522;7.682;2023-01-16T14:00:11;7.60;99.90
11650;DHT22;5881;48.522;7.682;2023-01-16T14:02:41;7.60;99.90
11650;DHT22;5881;48.522;7.682;2023-01-16T14:05:21;7.50;99.90
11650;DHT22;5881;48.522;7.682;2023-01-16T14:10:44;7.50;99.90
11650;DHT22;5881;48.522;7.682;2023-01-16T14:13:15;7.40;99.90
11650;DHT22;5881;48.522;7.682;2023-01-16T14:15:59;7.40;99.90
11650;DHT22;5881;48.522;7.682;2023-01-16T14:21:41;7.10;99.90
11650;DHT22;5881;48.522;7.682;2023-01-16T14:24:18;7.00;99.90
11650;DHT22;5881;48.522;7.682;2023-01-16T14:26:59;6.90;99.90
11650;DHT22;5881;48.522;7.682;2023-01-16T14:29:36;6.80;99.90
11650;DHT22;5881;48.522;7.682;2023-01-16T14:34:41;6.50;99.90
11650;DHT22;5881;48.522;7.682;2023-01-16T14:42:56;6.30;99.90
11650;DHT22;5881;48.522;7.682;2023-01-16T14:45:41;6.20;99.90
11650;DHT22;5881;48.522;7.682;2023-01-16T14:48:33;6.20;99.90
11650;DHT22;5881;48.522;7.682;2023-01-16T14:51:32;6.20;99.90
11650;DHT22;5881;48.522;7.682;2023-01-16T14:54:30;6.20;99.90
11650;DHT22;5881;48.522;7.682;2023-01-16T14:57:18;6.10;99.90
11650;DHT22;5881;48.522;7.682;2023-01-16T15:00:07;6.10;99.90
11650;DHT22;5881;48.522;7.682;2023-01-16T15:02:56;6.10;99.90
11650;DHT22;5881;48.522;7.682;2023-01-16T15:05:32;6.00;99.90
11650;DHT22;5881;48.522;7.682;2023-01-16T15:08:26;5.90;99.90
11650;DHT22;5881;48.522;7.682;2023-01-16T15:10:53;5.80;99.90
11650;DHT22;5881;48.522;7.682;2023-01-16T15:13:24;5.70;99.90
11650;DHT22;5881;48.522;7.682;2023-01-16T15:16:01;5.80;99.90
11650;DHT22;5881;48.522;7.682;2023-01-16T15:18:28;5.60;99.90
11650;DHT22;5881;48.522;7.682;2023-01-16T15:21:15;5.60;99.90
11650;DHT22;5881;48.522;7.682;2023-01-16T15:24:00;5.60;99.90
11650;DHT22;5881;48.522;7.682;2023-01-16T15:27:01;5.60;99.90
11650;DHT22;5881;48.522;7.682;2023-01-16T15:32:14;5.50;99.90
11650;DHT22;5881;48.522;7.682;2023-01-16T15:34:44;5.50;99.90
11650;DHT22;5881;48.522;7.682;2023-01-16T15:37:23;5.40;99.90
11650;DHT22;5881;48.522;7.682;2023-01-16T15:39:49;5.40;99.90
11650;DHT22;5881;48.522;7.682;2023-01-16T15:42:24;5.40;99.90
11650;DHT22;5881;48.522;7.682;2023-01-16T15:45:20;5.30;99.90
11650;DHT22;5881;48.522;7.682;2023-01-16T15:50:50;5.30;99.90
11650;DHT22;5881;48.522;7.682;2023-01-16T15:53:18;5.30;99.90
11650;DHT22;5881;48.522;7.682;2023-01-16T15:55:51;5.30;99.90
11650;DHT22;5881;48.522;7.682;2023-01-16T15:58:20;5.30;99.90
11650;DHT22;5881;48.522;7.682;2023-01-16T16:00:58;5.20;99.90
11650;DHT22;5881;48.522;7.682;2023-01-16T16:03:30;5.30;99.90
11650;DHT22;5881;48.522;7.682;2023-01-16T16:06:00;5.30;99.90
11650;DHT22;5881;48.522;7.682;2023-01-16T16:08:31;5.30;99.90
11650;DHT22;5881;48.522;7.682;2023-01-16T16:10:59;5.30;99.90
11650;DHT22;5881;48.522;7.682;2023-01-16T16:13:44;5.30;99.90
11650;DHT22;5881;48.522;7.682;2023-01-16T16:16:19;5.30;99.90
11650;DHT22;5881;48.522;7.682;2023-01-16T16:19:05;5.30;99.90
11650;DHT22;5881;48.522;7.682;2023-01-16T16:24:03;5.30;99.90
11650;DHT22;5881;48.522;7.682;2023-01-16T16:26:31;5.30;99.90
11650;DHT22;5881;48.522;7.682;2023-01-16T16:29:00;5.40;99.90
11650;DHT22;5881;48.522;7.682;2023-01-16T16:31:29;5.40;99.90
11650;DHT22;5881;48.522;7.682;2023-01-16T16:34:03;5.40;99.90
11650;DHT22;5881;48.522;7.682;2023-01-16T16:36:42;5.30;99.90
11650;DHT22;5881;48.522;7.682;2023-01-16T16:41:52;5.40;99.90
11650;DHT22;5881;48.522;7.682;2023-01-16T16:45:19;5.40;99.90
11650;DHT22;5881;48.522;7.682;2023-01-16T16:47:28;5.30;99.90
11650;DHT22;5881;48.522;7.682;2023-01-16T16:49:54;5.30;99.90
11650;DHT22;5881;48.522;7.682;2023-01-16T16:52:38;5.20;99.90
11650;DHT22;5881;48.522;7.682;2023-01-16T16:55:27;5.30;99.90
11650;DHT22;5881;48.522;7.682;2023-01-16T16:57:54;5.20;99.90
11650;DHT22;5881;48.522;7.682;2023-01-16T17:00:20;5.20;99.90
11650;DHT22;5881;48.522;7.682;2023-01-16T17:02:48;5.20;99.90
11650;DHT22;5881;48.522;7.682;2023-01-16T17:05:16;5.20;99.90
11650;DHT22;5881;48.522;7.682;2023-01-16T17:07:47;5.20;99.90
11650;DHT22;5881;48.522;7.682;2023-01-16T17:10:15;5.10;99.90
11650;DHT22;5881;48.522;7.682;2023-01-16T17:12:41;5.20;99.90
11650;DHT22;5881;48.522;7.682;2023-01-16T17:15:08;5.10;99.90
11650;DHT22;5881;48.522;7.682;2023-01-16T17:17:36;5.20;99.90
11650;DHT22;5881;48.522;7.682;2023-01-16T17:20:02;5.30;99.90
11650;DHT22;5881;48.522;7.682;2023-01-16T17:22:28;5.20;99.90
11650;DHT22;5881;48.522;7.682;2023-01-16T17:24:54;5.20;99.90
11650;DHT22;5881;48.522;7.682;2023-01-16T17:27:20;5.20;99.90
11650;DHT22;5881;48.522;7.682;2023-01-16T17:29:46;5.40;99.90
11650;DHT22;5881;48.522;7.682;2023-01-16T17:32:28;5.40;99.90
11650;DHT22;5881;48.522;7.682;2023-01-16T17:34:58;5.50;99.90
11650;DHT22;5881;48.522;7.682;2023-01-16T17:37:24;5.40;99.90
11650;DHT22;5881;48.522;7.682;2023-01-16T17:39:49;5.60;99.90
11650;DHT22;5881;48.522;7.682;2023-01-16T17:42:15;5.60;99.90
11650;DHT22;5881;48.522;7.682;2023-01-16T17:44:41;5.60;99.90
11650;DHT22;5881;48.522;7.682;2023-01-16T17:47:24;5.60;99.90
11650;DHT22;5881;48.522;7.682;2023-01-16T17:49:52;5.60;99.90
11650;DHT22;5881;48.522;7.682;2023-01-16T17:52:36;5.60;99.90
11650;DHT22;5881;48.522;7.682;2023-01-16T17:55:02;5.60;99.90
11650;DHT22;5881;48.522;7.682;2023-01-16T17:57:46;5.80;99.90
11650;DHT22;5881;48.522;7.682;2023-01-16T18:00:12;5.80;99.90
11650;DHT22;5881;48.522;7.682;2023-01-16T18:02:38;5.70;99.90
11650;DHT22;5881;48.522;7.682;2023-01-16T18:05:05;5.70;99.90
11650;DHT22;5881;48.522;7.682;2023-01-16T18:07:32;5.60;99.90
11650;DHT22;5881;48.522;7.682;2023-01-16T18:09:57;5.60;99.90
11650;DHT22;5881;48.522;7.682;2023-01-16T18:12:23;5.50;99.90
11650;DHT22;5881;48.522;7.682;2023-01-16T18:15:07;5.50;99.90
11650;DHT22;5881;48.522;7.682;2023-01-16T18:17:51;5.50;99.90
11650;DHT22;5881;48.522;7.682;2023-01-16T18:20:18;5.60;99.90
11650;DHT22;5881;48.522;7.682;2023-01-16T18:22:44;5.50;99.90
11650;DHT22;5881;48.522;7.682;2023-01-16T18:25:09;5.80;99.90
11650;DHT22;5881;48.522;7.682;2023-01-16T18:27:35;5.70;99.90
11650;DHT22;5881;48.522;7.682;2023-01-16T18:30:01;5.60;99.90
11650;DHT22;5881;48.522;7.682;2023-01-16T18:32:27;5.70;99.90
11650;DHT22;5881;48.522;7.682;2023-01-16T18:34:57;5.60;99.90
11650;DHT22;5881;48.522;7.682;2023-01-16T18:37:28;5.60;99.90
11650;DHT22;5881;48.522;7.682;2023-01-16T18:39:54;5.60;99.90
11650;DHT22;5881;48.522;7.682;2023-01-16T18:42:38;5.70;99.90
11650;DHT22;5881;48.522;7.682;2023-01-16T18:45:22;5.60;99.90
11650;DHT22;5881;48.522;7.682;2023-01-16T18:48:09;5.60;99.90
11650;DHT22;5881;48.522;7.682;2023-01-16T18:50:54;5.60;99.90